01:40
Airports
History
Links
Donate
Help keep this website running!
PayPal
Bitcoin
This page is community maintained. The information is intended for PC simulator navigation or reference.
Always use approved charts for navigation.
EDWS
Norden Norddeich
Norden Norddeich (EDWS)
Norden, Niedersachsen, Germany (26506)
(C)
Lat/Lng:53° 38' 4.99" N / 7° 11' 25" E
53.63472 / 7.190278
Elevation:3'ft / 1mMSL
ID / ICAO:EDWS
Runways:1
Longest:16-34
Asphalt 724m / 2,376ft
Controlled:Yes
Nearby Weather01:20 GMT 2017-11-23
Nearby weather at ETNT, WITTMUNDHAFEN located 20.5 nautical miles from EDWS
Altimeter: 29.44
Visibility: 6.2 statute miles
Wind: 15 knots (from 200°)
Temp: 10°c / 50°f
Humidity: 61.7%

METAR: ETNT 230120Z 20015KT 9999 SCT200 10/03 Q0997 BLU+

(Powered by phpweather)
Airport Radio Frequencies
Tower: 120.5, 125.1
Nearby VORs <50NM
Nearby NDBs
Runway 16 / 34
Dimensions:724.2 x 20.1m 2376' x 66'ft
Surface:Asphalt
Runway 16 [A]Runway 34 [B]
Heading:159°TH 339°TH
Lat:
Lng:
53° 38' 15.94"N
7° 11' 18.21"E
53° 37' 54.05"N
7° 11' 31.79"E
User Notes and Comments
53° 38' 4.99" N / 7° 11' 25" E
Distance To
Airport ID:
Nearby Airports
(C) Norderney 5.2 NM
EDWY NNE 17°
(C) Juist 6.3 NM
EDWJ WNW 301°
(C) Baltrum 9.7 NM
EDWZ NE 49°
(C) Langeoog 14.7 NM
EDWL ENE 59°
(C) EMDEN 16.9 NM
EDWE S 174°
(C) BORKUM 19.8 NM
EDWR W 261°
(C) WITTMUNDHAFEN 20.5 NM
ETNT ( WX ) ESE 107°
VFR Chart
Flight Planning at SkyVector.com